Huvudsida
METAR-TAF:

METAR-TAF

Flygplatser :

Yaounde flygplats

Yaoundé, Kamerun

latitud: 03-50N, longitud: 011-31E, höjd: 751 m

Aktuellt väderrapport

Denna rapport gjordes för 59 minuter sedan, klockan 03:00 UTC
Stilla vind
Temperatur 23°C
Fuktighet 94%
Tryck 1014 hPa
Sikt: 6000 m
Brutna moln på en höjd av 600 ft

METAR: FKYS 200300Z 00000KT 6000 BKN006 23/22 Q1014 TEMPO SCT006

Tid: 04:59 (03:59 UTC)

Väderprognos

Denna rapport gjordes för 4 timmar och 59 minuter sedan, klockan 23:00 UTC
Prognos gäller från 20 kl. 00 UTC till 20 kl. 24 UTC
Vind 3 kt från väst/sydväst
Sikt: 6000 m
Få moln på en höjd av 300 ft
Brutna moln på en höjd av 600 ft
Temporärt
från 20 kl. 01 UTC till 20 kl. 07 UTC
Sikt: 3000 m
fuktdis
Sannolikhet 30%
från 20 kl. 04 UTC till 20 kl. 06 UTC
Sikt: 0800 m
dimma
Blir
från 20 kl. 06 UTC till 20 kl. 08 UTC
Brutna moln på en höjd av 1300 ft

TAF: FKYS 192300Z 2000/2024 24003KT 6000 FEW003 BKN006 TEMPO 2001/2007 3000 BR PROB30 2004/2006 0800 FG BECMG 2006/2008 BKN013

Aktuella väderrapporter och prognoser från 4000 flygplatser (METAR- och TAF-rapporter).

De tillgängliga stationerna syns som gula och röda prickar på kartan.

För musen över prickarna för att se namnen på stationerna.

Klicka sedan för att få väderrapporter och prognoser.

För att ändra kartan: Klicka på de gröna knapparna med ett svart kors på för att zooma in; den gröna knappen med ett streck på för att zooma ut; eller på de gröna pilarna för angränsande kartor.


METAR-TAF: